sensor_id;sensor_type;location;lat;lon;timestamp;P1;durP1;ratioP1;P2;durP2;ratioP2
66145;SDS011;52948;60.040;30.320;2022-10-16T00:04:42;9.18;;;5.10;;
66145;SDS011;52948;60.040;30.320;2022-10-16T00:09:45;10.15;;;5.10;;
66145;SDS011;52948;60.040;30.320;2022-10-16T00:14:47;10.20;;;4.80;;
66145;SDS011;52948;60.040;30.320;2022-10-16T00:19:50;7.68;;;4.68;;
66145;SDS011;52948;60.040;30.320;2022-10-16T00:25:10;9.05;;;5.20;;
66145;SDS011;52948;60.040;30.320;2022-10-16T00:30:13;9.48;;;5.10;;
66145;SDS011;52948;60.040;30.320;2022-10-16T00:35:15;8.25;;;4.60;;
66145;SDS011;52948;60.040;30.320;2022-10-16T00:40:17;8.38;;;5.13;;
66145;SDS011;52948;60.040;30.320;2022-10-16T00:45:19;11.10;;;5.25;;
66145;SDS011;52948;60.040;30.320;2022-10-16T00:50:24;11.30;;;4.75;;
66145;SDS011;52948;60.040;30.320;2022-10-16T00:55:29;6.97;;;4.70;;
66145;SDS011;52948;60.040;30.320;2022-10-16T01:00:32;9.30;;;4.90;;
66145;SDS011;52948;60.040;30.320;2022-10-16T01:05:39;7.03;;;4.60;;
66145;SDS011;52948;60.040;30.320;2022-10-16T01:16:08;6.32;;;4.20;;
66145;SDS011;52948;60.040;30.320;2022-10-16T01:31:35;10.00;;;5.20;;
66145;SDS011;52948;60.040;30.320;2022-10-16T01:36:41;8.30;;;3.80;;
66145;SDS011;52948;60.040;30.320;2022-10-16T01:41:47;7.72;;;4.43;;
66145;SDS011;52948;60.040;30.320;2022-10-16T01:46:51;7.65;;;4.90;;
66145;SDS011;52948;60.040;30.320;2022-10-16T01:51:59;7.40;;;4.63;;
66145;SDS011;52948;60.040;30.320;2022-10-16T01:57:04;8.57;;;4.57;;
66145;SDS011;52948;60.040;30.320;2022-10-16T02:02:12;7.88;;;4.85;;
66145;SDS011;52948;60.040;30.320;2022-10-16T02:07:16;7.82;;;4.97;;
66145;SDS011;52948;60.040;30.320;2022-10-16T02:12:23;7.13;;;4.93;;
66145;SDS011;52948;60.040;30.320;2022-10-16T02:17:29;8.27;;;5.18;;
66145;SDS011;52948;60.040;30.320;2022-10-16T02:22:42;8.15;;;4.80;;
66145;SDS011;52948;60.040;30.320;2022-10-16T02:28:08;10.27;;;4.88;;
66145;SDS011;52948;60.040;30.320;2022-10-16T02:33:15;11.27;;;5.13;;
66145;SDS011;52948;60.040;30.320;2022-10-16T02:38:18;10.02;;;5.18;;
66145;SDS011;52948;60.040;30.320;2022-10-16T02:43:21;8.68;;;5.25;;
66145;SDS011;52948;60.040;30.320;2022-10-16T02:48:23;8.48;;;5.53;;
66145;SDS011;52948;60.040;30.320;2022-10-16T02:53:26;7.85;;;4.47;;
66145;SDS011;52948;60.040;30.320;2022-10-16T02:58:28;9.60;;;4.95;;
66145;SDS011;52948;60.040;30.320;2022-10-16T03:03:30;8.90;;;5.07;;
66145;SDS011;52948;60.040;30.320;2022-10-16T03:08:32;11.75;;;5.30;;
66145;SDS011;52948;60.040;30.320;2022-10-16T03:13:35;10.73;;;6.05;;
66145;SDS011;52948;60.040;30.320;2022-10-16T03:18:37;9.27;;;5.65;;
66145;SDS011;52948;60.040;30.320;2022-10-16T03:23:40;11.13;;;5.68;;
66145;SDS011;52948;60.040;30.320;2022-10-16T03:28:42;7.80;;;4.97;;
66145;SDS011;52948;60.040;30.320;2022-10-16T03:33:44;11.77;;;5.03;;
66145;SDS011;52948;60.040;30.320;2022-10-16T03:38:47;9.15;;;4.88;;
66145;SDS011;52948;60.040;30.320;2022-10-16T03:43:49;6.97;;;4.18;;
66145;SDS011;52948;60.040;30.320;2022-10-16T03:48:51;8.18;;;4.68;;
66145;SDS011;52948;60.040;30.320;2022-10-16T03:53:54;9.88;;;5.53;;
66145;SDS011;52948;60.040;30.320;2022-10-16T03:58:57;10.15;;;5.35;;
66145;SDS011;52948;60.040;30.320;2022-10-16T04:03:59;13.70;;;5.80;;
66145;SDS011;52948;60.040;30.320;2022-10-16T04:09:01;8.10;;;5.10;;
66145;SDS011;52948;60.040;30.320;2022-10-16T04:14:03;9.20;;;4.88;;
66145;SDS011;52948;60.040;30.320;2022-10-16T04:19:05;6.88;;;4.43;;
66145;SDS011;52948;60.040;30.320;2022-10-16T04:24:08;9.05;;;5.35;;
66145;SDS011;52948;60.040;30.320;2022-10-16T04:29:10;11.32;;;5.32;;
66145;SDS011;52948;60.040;30.320;2022-10-16T04:34:12;11.45;;;5.18;;
66145;SDS011;52948;60.040;30.320;2022-10-16T04:39:14;8.93;;;4.72;;
66145;SDS011;52948;60.040;30.320;2022-10-16T04:44:17;9.45;;;5.80;;
66145;SDS011;52948;60.040;30.320;2022-10-16T04:49:19;10.05;;;5.38;;
66145;SDS011;52948;60.040;30.320;2022-10-16T04:54:21;8.18;;;5.03;;
66145;SDS011;52948;60.040;30.320;2022-10-16T04:59:23;11.52;;;5.78;;
66145;SDS011;52948;60.040;30.320;2022-10-16T05:04:26;7.82;;;5.20;;
66145;SDS011;52948;60.040;30.320;2022-10-16T05:09:28;11.27;;;4.95;;
66145;SDS011;52948;60.040;30.320;2022-10-16T05:14:30;8.30;;;4.85;;
66145;SDS011;52948;60.040;30.320;2022-10-16T05:19:32;9.50;;;5.22;;
66145;SDS011;52948;60.040;30.320;2022-10-16T05:24:35;6.32;;;4.22;;
66145;SDS011;52948;60.040;30.320;2022-10-16T05:29:37;10.82;;;4.70;;
66145;SDS011;52948;60.040;30.320;2022-10-16T05:34:39;12.18;;;5.63;;
66145;SDS011;52948;60.040;30.320;2022-10-16T05:39:41;9.07;;;4.65;;
66145;SDS011;52948;60.040;30.320;2022-10-16T05:44:43;12.23;;;5.30;;
66145;SDS011;52948;60.040;30.320;2022-10-16T05:49:46;7.63;;;4.78;;
66145;SDS011;52948;60.040;30.320;2022-10-16T05:54:48;5.72;;;3.47;;
66145;SDS011;52948;60.040;30.320;2022-10-16T05:59:50;10.18;;;4.93;;
66145;SDS011;52948;60.040;30.320;2022-10-16T06:04:52;9.50;;;4.85;;
66145;SDS011;52948;60.040;30.320;2022-10-16T06:09:55;14.57;;;5.50;;
66145;SDS011;52948;60.040;30.320;2022-10-16T06:14:57;9.13;;;4.13;;
66145;SDS011;52948;60.040;30.320;2022-10-16T06:19:59;8.38;;;4.65;;
66145;SDS011;52948;60.040;30.320;2022-10-16T06:25:02;10.90;;;5.55;;
66145;SDS011;52948;60.040;30.320;2022-10-16T06:30:04;7.25;;;4.28;;
66145;SDS011;52948;60.040;30.320;2022-10-16T06:35:07;11.90;;;4.70;;
66145;SDS011;52948;60.040;30.320;2022-10-16T06:40:09;7.47;;;3.90;;
66145;SDS011;52948;60.040;30.320;2022-10-16T06:45:11;7.75;;;4.75;;
66145;SDS011;52948;60.040;30.320;2022-10-16T06:50:14;7.82;;;4.30;;
66145;SDS011;52948;60.040;30.320;2022-10-16T06:55:16;12.00;;;5.43;;
66145;SDS011;52948;60.040;30.320;2022-10-16T07:00:18;9.50;;;5.10;;
66145;SDS011;52948;60.040;30.320;2022-10-16T07:05:20;9.05;;;4.70;;
66145;SDS011;52948;60.040;30.320;2022-10-16T07:10:23;11.05;;;4.97;;
66145;SDS011;52948;60.040;30.320;2022-10-16T07:15:28;7.63;;;4.55;;
66145;SDS011;52948;60.040;30.320;2022-10-16T07:20:30;8.85;;;4.68;;
66145;SDS011;52948;60.040;30.320;2022-10-16T07:25:32;8.27;;;4.97;;
66145;SDS011;52948;60.040;30.320;2022-10-16T07:30:34;8.57;;;5.10;;
66145;SDS011;52948;60.040;30.320;2022-10-16T07:35:38;7.88;;;4.70;;
66145;SDS011;52948;60.040;30.320;2022-10-16T07:40:59;8.48;;;4.70;;
66145;SDS011;52948;60.040;30.320;2022-10-16T07:46:02;10.23;;;5.50;;
66145;SDS011;52948;60.040;30.320;2022-10-16T07:51:05;8.13;;;5.00;;
66145;SDS011;52948;60.040;30.320;2022-10-16T07:56:08;13.30;;;5.13;;
66145;SDS011;52948;60.040;30.320;2022-10-16T08:01:12;10.85;;;5.85;;
66145;SDS011;52948;60.040;30.320;2022-10-16T08:06:15;11.02;;;5.00;;
66145;SDS011;52948;60.040;30.320;2022-10-16T08:11:18;8.50;;;4.97;;
66145;SDS011;52948;60.040;30.320;2022-10-16T08:16:21;11.05;;;5.15;;
66145;SDS011;52948;60.040;30.320;2022-10-16T08:21:24;7.13;;;4.47;;
66145;SDS011;52948;60.040;30.320;2022-10-16T08:26:26;11.43;;;5.80;;
66145;SDS011;52948;60.040;30.320;2022-10-16T08:31:29;7.40;;;5.00;;
66145;SDS011;52948;60.040;30.320;2022-10-16T08:36:31;7.93;;;4.70;;
66145;SDS011;52948;60.040;30.320;2022-10-16T08:41:41;6.63;;;4.43;;
66145;SDS011;52948;60.040;30.320;2022-10-16T08:47:07;10.07;;;5.22;;
66145;SDS011;52948;60.040;30.320;2022-10-16T08:52:12;8.95;;;4.30;;
66145;SDS011;52948;60.040;30.320;2022-10-16T08:57:16;10.60;;;4.03;;
66145;SDS011;52948;60.040;30.320;2022-10-16T09:02:40;8.85;;;4.78;;
66145;SDS011;52948;60.040;30.320;2022-10-16T09:13:04;11.25;;;5.30;;
66145;SDS011;52948;60.040;30.320;2022-10-16T09:24:00;6.93;;;4.07;;
66145;SDS011;52948;60.040;30.320;2022-10-16T09:29:18;8.05;;;4.88;;
66145;SDS011;52948;60.040;30.320;2022-10-16T09:34:34;13.15;;;4.45;;
66145;SDS011;52948;60.040;30.320;2022-10-16T09:39:49;12.15;;;5.10;;
66145;SDS011;52948;60.040;30.320;2022-10-16T09:44:52;8.93;;;5.30;;
66145;SDS011;52948;60.040;30.320;2022-10-16T09:49:56;12.18;;;4.60;;
66145;SDS011;52948;60.040;30.320;2022-10-16T09:55:15;9.50;;;5.05;;
66145;SDS011;52948;60.040;30.320;2022-10-16T10:00:19;9.98;;;4.70;;
66145;SDS011;52948;60.040;30.320;2022-10-16T10:05:24;7.95;;;2.97;;
66145;SDS011;52948;60.040;30.320;2022-10-16T10:10:29;10.32;;;4.80;;
66145;SDS011;52948;60.040;30.320;2022-10-16T10:15:33;6.28;;;3.90;;
66145;SDS011;52948;60.040;30.320;2022-10-16T10:20:36;8.88;;;4.35;;
66145;SDS011;52948;60.040;30.320;2022-10-16T10:25:51;12.73;;;4.95;;
66145;SDS011;52948;60.040;30.320;2022-10-16T10:31:03;9.88;;;3.90;;
66145;SDS011;52948;60.040;30.320;2022-10-16T10:46:32;13.90;;;5.80;;
66145;SDS011;52948;60.040;30.320;2022-10-16T11:02:18;8.38;;;4.20;;
66145;SDS011;52948;60.040;30.320;2022-10-16T11:07:27;10.32;;;5.30;;
66145;SDS011;52948;60.040;30.320;2022-10-16T11:12:40;7.40;;;4.28;;
66145;SDS011;52948;60.040;30.320;2022-10-16T11:17:46;6.93;;;3.53;;
66145;SDS011;52948;60.040;30.320;2022-10-16T11:23:01;9.48;;;3.63;;
66145;SDS011;52948;60.040;30.320;2022-10-16T11:28:13;8.85;;;4.68;;
66145;SDS011;52948;60.040;30.320;2022-10-16T11:38:30;6.47;;;4.00;;
66145;SDS011;52948;60.040;30.320;2022-10-16T11:43:38;6.28;;;4.18;;
66145;SDS011;52948;60.040;30.320;2022-10-16T11:48:51;6.72;;;3.70;;
66145;SDS011;52948;60.040;30.320;2022-10-16T11:59:30;7.65;;;4.50;;
66145;SDS011;52948;60.040;30.320;2022-10-16T12:04:43;7.25;;;4.10;;
66145;SDS011;52948;60.040;30.320;2022-10-16T12:09:49;7.72;;;4.63;;
66145;SDS011;52948;60.040;30.320;2022-10-16T12:15:03;8.20;;;4.80;;
66145;SDS011;52948;60.040;30.320;2022-10-16T12:25:21;9.18;;;4.72;;
66145;SDS011;52948;60.040;30.320;2022-10-16T12:30:31;8.90;;;4.28;;
66145;SDS011;52948;60.040;30.320;2022-10-16T12:35:42;9.25;;;4.57;;
66145;SDS011;52948;60.040;30.320;2022-10-16T12:41:08;8.25;;;4.95;;
66145;SDS011;52948;60.040;30.320;2022-10-16T13:12:58;7.60;;;4.30;;
66145;SDS011;52948;60.040;30.320;2022-10-16T13:18:27;8.23;;;4.47;;
66145;SDS011;52948;60.040;30.320;2022-10-16T13:24:18;8.38;;;4.65;;
66145;SDS011;52948;60.040;30.320;2022-10-16T13:29:06;8.82;;;4.75;;
66145;SDS011;52948;60.040;30.320;2022-10-16T13:34:11;9.57;;;4.85;;
66145;SDS011;52948;60.040;30.320;2022-10-16T13:39:27;8.93;;;5.22;;
66145;SDS011;52948;60.040;30.320;2022-10-16T13:44:31;8.88;;;4.80;;
66145;SDS011;52948;60.040;30.320;2022-10-16T13:49:38;8.43;;;5.00;;
66145;SDS011;52948;60.040;30.320;2022-10-16T13:54:40;8.13;;;4.90;;
66145;SDS011;52948;60.040;30.320;2022-10-16T13:59:43;9.13;;;5.90;;
66145;SDS011;52948;60.040;30.320;2022-10-16T14:04:46;8.30;;;4.60;;
66145;SDS011;52948;60.040;30.320;2022-10-16T14:09:49;10.10;;;5.20;;
66145;SDS011;52948;60.040;30.320;2022-10-16T14:14:53;9.98;;;5.80;;
66145;SDS011;52948;60.040;30.320;2022-10-16T14:19:56;14.52;;;5.47;;
66145;SDS011;52948;60.040;30.320;2022-10-16T14:25:00;10.68;;;5.22;;
66145;SDS011;52948;60.040;30.320;2022-10-16T14:35:56;6.57;;;4.65;;
66145;SDS011;52948;60.040;30.320;2022-10-16T14:40:48;8.60;;;4.90;;
66145;SDS011;52948;60.040;30.320;2022-10-16T14:45:52;12.48;;;6.22;;
66145;SDS011;52948;60.040;30.320;2022-10-16T14:50:55;8.90;;;4.93;;
66145;SDS011;52948;60.040;30.320;2022-10-16T14:55:58;10.98;;;5.80;;
66145;SDS011;52948;60.040;30.320;2022-10-16T15:01:00;7.80;;;5.07;;
66145;SDS011;52948;60.040;30.320;2022-10-16T15:06:02;7.75;;;5.10;;
66145;SDS011;52948;60.040;30.320;2022-10-16T15:11:05;12.35;;;6.40;;
66145;SDS011;52948;60.040;30.320;2022-10-16T15:16:12;11.40;;;5.30;;
66145;SDS011;52948;60.040;30.320;2022-10-16T15:21:25;10.95;;;5.88;;
66145;SDS011;52948;60.040;30.320;2022-10-16T15:26:29;9.77;;;5.63;;
66145;SDS011;52948;60.040;30.320;2022-10-16T15:31:32;11.98;;;6.40;;
66145;SDS011;52948;60.040;30.320;2022-10-16T15:36:35;14.63;;;7.03;;
66145;SDS011;52948;60.040;30.320;2022-10-16T15:41:39;12.65;;;5.70;;
66145;SDS011;52948;60.040;30.320;2022-10-16T15:46:41;12.40;;;7.43;;
66145;SDS011;52948;60.040;30.320;2022-10-16T15:51:43;15.52;;;8.18;;
66145;SDS011;52948;60.040;30.320;2022-10-16T15:56:46;15.13;;;7.07;;
66145;SDS011;52948;60.040;30.320;2022-10-16T16:01:48;15.50;;;7.60;;
66145;SDS011;52948;60.040;30.320;2022-10-16T16:06:50;14.65;;;8.00;;
66145;SDS011;52948;60.040;30.320;2022-10-16T16:11:53;15.93;;;7.22;;
66145;SDS011;52948;60.040;30.320;2022-10-16T16:16:55;15.02;;;7.18;;
66145;SDS011;52948;60.040;30.320;2022-10-16T16:21:58;13.85;;;7.55;;
66145;SDS011;52948;60.040;30.320;2022-10-16T16:27:01;13.40;;;7.45;;
66145;SDS011;52948;60.040;30.320;2022-10-16T16:32:04;15.48;;;7.65;;
66145;SDS011;52948;60.040;30.320;2022-10-16T16:37:06;13.13;;;7.63;;
66145;SDS011;52948;60.040;30.320;2022-10-16T16:42:08;12.85;;;7.28;;
66145;SDS011;52948;60.040;30.320;2022-10-16T16:47:11;15.15;;;8.40;;
66145;SDS011;52948;60.040;30.320;2022-10-16T16:52:14;17.65;;;8.82;;
66145;SDS011;52948;60.040;30.320;2022-10-16T16:57:19;20.35;;;9.05;;
66145;SDS011;52948;60.040;30.320;2022-10-16T17:02:22;19.35;;;8.02;;
66145;SDS011;52948;60.040;30.320;2022-10-16T17:07:24;15.63;;;8.20;;
66145;SDS011;52948;60.040;30.320;2022-10-16T17:12:28;15.63;;;8.68;;
66145;SDS011;52948;60.040;30.320;2022-10-16T17:17:31;15.95;;;8.05;;
66145;SDS011;52948;60.040;30.320;2022-10-16T17:22:33;15.02;;;7.38;;
66145;SDS011;52948;60.040;30.320;2022-10-16T17:27:35;18.73;;;8.57;;
66145;SDS011;52948;60.040;30.320;2022-10-16T17:32:38;14.20;;;7.60;;
66145;SDS011;52948;60.040;30.320;2022-10-16T17:37:40;15.35;;;7.07;;
66145;SDS011;52948;60.040;30.320;2022-10-16T17:42:43;15.35;;;6.72;;
66145;SDS011;52948;60.040;30.320;2022-10-16T17:47:46;16.52;;;7.50;;
66145;SDS011;52948;60.040;30.320;2022-10-16T17:52:49;16.95;;;7.93;;
66145;SDS011;52948;60.040;30.320;2022-10-16T17:57:51;11.80;;;6.30;;
66145;SDS011;52948;60.040;30.320;2022-10-16T18:02:56;13.40;;;6.30;;
66145;SDS011;52948;60.040;30.320;2022-10-16T18:08:00;13.65;;;7.78;;
66145;SDS011;52948;60.040;30.320;2022-10-16T18:13:04;13.93;;;6.63;;
66145;SDS011;52948;60.040;30.320;2022-10-16T18:18:07;14.65;;;7.65;;
66145;SDS011;52948;60.040;30.320;2022-10-16T18:23:10;10.07;;;5.90;;
66145;SDS011;52948;60.040;30.320;2022-10-16T18:28:15;13.43;;;7.30;;
66145;SDS011;52948;60.040;30.320;2022-10-16T18:33:17;15.18;;;7.75;;
66145;SDS011;52948;60.040;30.320;2022-10-16T18:38:19;12.73;;;6.97;;
66145;SDS011;52948;60.040;30.320;2022-10-16T18:43:22;16.33;;;8.20;;
66145;SDS011;52948;60.040;30.320;2022-10-16T18:48:25;14.02;;;8.20;;
66145;SDS011;52948;60.040;30.320;2022-10-16T18:53:27;16.73;;;6.97;;
66145;SDS011;52948;60.040;30.320;2022-10-16T18:58:29;15.05;;;7.20;;
66145;SDS011;52948;60.040;30.320;2022-10-16T19:03:32;14.95;;;6.35;;
66145;SDS011;52948;60.040;30.320;2022-10-16T19:08:35;14.27;;;7.43;;
66145;SDS011;52948;60.040;30.320;2022-10-16T19:13:40;18.50;;;7.78;;
66145;SDS011;52948;60.040;30.320;2022-10-16T19:18:42;13.20;;;6.15;;
66145;SDS011;52948;60.040;30.320;2022-10-16T19:23:45;13.98;;;7.28;;
66145;SDS011;52948;60.040;30.320;2022-10-16T19:28:47;15.00;;;7.35;;
66145;SDS011;52948;60.040;30.320;2022-10-16T19:33:53;12.10;;;6.80;;
66145;SDS011;52948;60.040;30.320;2022-10-16T19:38:58;13.32;;;7.85;;
66145;SDS011;52948;60.040;30.320;2022-10-16T19:44:06;14.07;;;7.55;;
66145;SDS011;52948;60.040;30.320;2022-10-16T19:49:11;15.32;;;6.50;;
66145;SDS011;52948;60.040;30.320;2022-10-16T19:54:15;16.10;;;7.03;;
66145;SDS011;52948;60.040;30.320;2022-10-16T19:59:17;11.45;;;6.18;;
66145;SDS011;52948;60.040;30.320;2022-10-16T20:04:21;13.63;;;6.50;;
66145;SDS011;52948;60.040;30.320;2022-10-16T20:09:26;10.38;;;5.15;;
66145;SDS011;52948;60.040;30.320;2022-10-16T20:14:29;11.85;;;6.13;;
66145;SDS011;52948;60.040;30.320;2022-10-16T20:19:33;9.60;;;5.85;;
66145;SDS011;52948;60.040;30.320;2022-10-16T20:24:40;15.05;;;6.13;;
66145;SDS011;52948;60.040;30.320;2022-10-16T20:29:42;10.48;;;5.28;;
66145;SDS011;52948;60.040;30.320;2022-10-16T20:34:45;9.32;;;5.28;;
66145;SDS011;52948;60.040;30.320;2022-10-16T20:39:54;10.77;;;5.68;;
66145;SDS011;52948;60.040;30.320;2022-10-16T20:44:56;9.20;;;5.53;;
66145;SDS011;52948;60.040;30.320;2022-10-16T20:49:59;11.10;;;5.30;;
66145;SDS011;52948;60.040;30.320;2022-10-16T20:55:01;10.88;;;5.50;;
66145;SDS011;52948;60.040;30.320;2022-10-16T21:00:05;10.00;;;5.25;;
66145;SDS011;52948;60.040;30.320;2022-10-16T21:05:08;8.27;;;4.75;;
66145;SDS011;52948;60.040;30.320;2022-10-16T21:10:11;7.78;;;4.63;;
66145;SDS011;52948;60.040;30.320;2022-10-16T21:15:13;8.02;;;4.30;;
66145;SDS011;52948;60.040;30.320;2022-10-16T21:20:16;8.38;;;4.53;;
66145;SDS011;52948;60.040;30.320;2022-10-16T21:25:19;7.53;;;4.18;;
66145;SDS011;52948;60.040;30.320;2022-10-16T21:30:21;6.30;;;3.83;;
66145;SDS011;52948;60.040;30.320;2022-10-16T21:35:23;4.65;;;3.30;;
66145;SDS011;52948;60.040;30.320;2022-10-16T21:40:27;4.10;;;3.15;;
66145;SDS011;52948;60.040;30.320;2022-10-16T21:45:32;5.10;;;3.38;;
66145;SDS011;52948;60.040;30.320;2022-10-16T21:50:35;4.97;;;2.78;;
66145;SDS011;52948;60.040;30.320;2022-10-16T21:55:37;4.57;;;2.95;;
66145;SDS011;52948;60.040;30.320;2022-10-16T22:00:39;4.30;;;3.08;;
66145;SDS011;52948;60.040;30.320;2022-10-16T22:05:41;4.47;;;2.72;;
66145;SDS011;52948;60.040;30.320;2022-10-16T22:10:43;5.93;;;3.40;;
66145;SDS011;52948;60.040;30.320;2022-10-16T22:15:48;3.47;;;2.70;;
66145;SDS011;52948;60.040;30.320;2022-10-16T22:20:52;4.72;;;2.67;;
66145;SDS011;52948;60.040;30.320;2022-10-16T22:26:02;7.10;;;2.70;;
66145;SDS011;52948;60.040;30.320;2022-10-16T22:31:06;3.63;;;2.17;;
66145;SDS011;52948;60.040;30.320;2022-10-16T22:36:12;3.58;;;2.40;;
66145;SDS011;52948;60.040;30.320;2022-10-16T22:41:15;2.33;;;1.90;;
66145;SDS011;52948;60.040;30.320;2022-10-16T22:46:21;4.00;;;2.20;;
66145;SDS011;52948;60.040;30.320;2022-10-16T22:51:26;2.15;;;1.83;;
66145;SDS011;52948;60.040;30.320;2022-10-16T22:56:28;1.55;;;1.45;;
66145;SDS011;52948;60.040;30.320;2022-10-16T23:01:33;2.38;;;1.70;;
66145;SDS011;52948;60.040;30.320;2022-10-16T23:06:37;2.10;;;1.40;;
66145;SDS011;52948;60.040;30.320;2022-10-16T23:11:42;2.63;;;1.90;;
66145;SDS011;52948;60.040;30.320;2022-10-16T23:16:44;1.75;;;1.55;;
66145;SDS011;52948;60.040;30.320;2022-10-16T23:21:46;3.33;;;1.90;;
66145;SDS011;52948;60.040;30.320;2022-10-16T23:26:49;3.08;;;1.90;;
66145;SDS011;52948;60.040;30.320;2022-10-16T23:31:54;2.55;;;1.73;;
66145;SDS011;52948;60.040;30.320;2022-10-16T23:36:56;2.17;;;1.55;;
66145;SDS011;52948;60.040;30.320;2022-10-16T23:41:58;1.50;;;1.30;;
66145;SDS011;52948;60.040;30.320;2022-10-16T23:47:01;2.42;;;2.08;;
66145;SDS011;52948;60.040;30.320;2022-10-16T23:52:03;2.25;;;1.88;;
66145;SDS011;52948;60.040;30.320;2022-10-16T23:57:05;2.47;;;2.03;;
